createdAt,value
2023-03-28T00:01:22.703Z,0.40
2023-03-28T00:03:52.773Z,0.34
2023-03-28T00:06:22.163Z,0.24
2023-03-28T00:08:52.453Z,0.25
2023-03-28T00:11:24.012Z,0.39
2023-03-28T00:14:01.241Z,0.39
2023-03-28T00:16:38.241Z,0.29
2023-03-28T00:19:11.880Z,0.32
2023-03-28T00:21:47.869Z,0.34
2023-03-28T00:24:21.669Z,0.38
2023-03-28T00:26:55.308Z,0.38
2023-03-28T00:29:26.285Z,0.30
2023-03-28T00:31:56.686Z,0.42
2023-03-28T00:34:27.588Z,0.38
2023-03-28T00:36:56.869Z,0.29
2023-03-28T00:39:27.911Z,0.15
2023-03-28T00:41:57.611Z,0.10
2023-03-28T00:44:52.811Z,0.13
2023-03-28T00:47:43.928Z,0.05
2023-03-28T00:50:32.537Z,0.07
2023-03-28T00:53:26.519Z,0.06
2023-03-28T00:56:08.493Z,0.02
2023-03-28T00:58:47.437Z,-0.04
2023-03-28T01:01:21.099Z,-0.08
2023-03-28T01:04:06.366Z,-0.09
2023-03-28T01:06:49.109Z,-0.21
2023-03-28T01:09:24.184Z,-0.31
2023-03-28T01:11:59.299Z,-0.45
2023-03-28T01:14:32.431Z,-0.36
2023-03-28T01:17:00.788Z,-0.50
2023-03-28T01:20:16.399Z,-0.37
2023-03-28T01:23:41.647Z,-0.59
2023-03-28T01:26:59.330Z,-0.67
2023-03-28T01:30:12.678Z,-0.54
2023-03-28T01:33:28.300Z,-0.52
2023-03-28T01:36:07.129Z,-0.53
2023-03-28T01:38:59.171Z,-0.58
2023-03-28T01:41:56.957Z,-0.56
2023-03-28T01:44:44.173Z,-0.50
2023-03-28T01:47:41.487Z,-0.53
2023-03-28T01:50:27.090Z,-0.35
2023-03-28T01:53:13.164Z,-0.31
2023-03-28T01:56:23.315Z,-0.25
2023-03-28T01:59:27.024Z,-0.17
2023-03-28T02:02:42.579Z,-0.19
2023-03-28T02:05:19.644Z,-0.22
2023-03-28T02:07:52.342Z,-0.15
2023-03-28T02:10:31.761Z,-0.05
2023-03-28T02:13:15.912Z,-0.16
2023-03-28T02:16:00.687Z,-0.26
2023-03-28T02:18:40.666Z,-0.18
2023-03-28T02:21:31.943Z,-0.30
2023-03-28T02:24:03.126Z,-0.33
2023-03-28T02:26:34.131Z,-0.29
2023-03-28T02:29:08.852Z,-0.31
2023-03-28T02:31:39.149Z,-0.33
2023-03-28T02:34:10.933Z,-0.42
2023-03-28T02:37:31.019Z,-0.63
2023-03-28T02:40:35.404Z,-0.84
2023-03-28T02:43:48.901Z,-0.90
2023-03-28T02:46:55.672Z,-0.89
2023-03-28T02:50:19.513Z,-1.02
2023-03-28T02:53:10.944Z,-1.07
2023-03-28T02:56:05.154Z,-1.11
2023-03-28T02:59:04.637Z,-1.10
2023-03-28T03:01:36.889Z,-1.11
2023-03-28T03:04:07.876Z,-1.00
2023-03-28T03:06:38.073Z,-1.12
2023-03-28T03:09:08.741Z,-1.24
2023-03-28T03:11:39.123Z,-1.26
2023-03-28T03:14:09.412Z,-1.21
2023-03-28T03:16:39.581Z,-1.16
2023-03-28T03:19:09.940Z,-0.96
2023-03-28T03:21:40.162Z,-1.05
2023-03-28T03:24:10.366Z,-1.09
2023-03-28T03:26:41.000Z,-0.97
2023-03-28T03:29:11.168Z,-0.88
2023-03-28T03:31:41.949Z,-0.92
2023-03-28T03:34:09.869Z,-0.84
2023-03-28T03:36:38.217Z,-0.90
2023-03-28T03:39:06.675Z,-0.76
2023-03-28T03:41:34.994Z,-0.86
2023-03-28T03:44:03.994Z,-0.79
2023-03-28T03:46:31.953Z,-0.88
2023-03-28T03:49:00.418Z,-0.94
2023-03-28T03:51:28.708Z,-0.95
2023-03-28T03:54:00.305Z,-0.95
2023-03-28T03:56:28.690Z,-1.01
2023-03-28T03:58:57.369Z,-0.99
2023-03-28T04:01:30.293Z,-0.98
2023-03-28T04:04:00.741Z,-0.82
2023-03-28T04:06:30.892Z,-0.92
2023-03-28T04:09:01.076Z,-1.04
2023-03-28T04:11:29.428Z,-0.82
2023-03-28T04:13:57.846Z,-0.87
2023-03-28T04:16:26.361Z,-0.99
2023-03-28T04:18:54.622Z,-1.01
2023-03-28T04:21:32.373Z,-1.04
2023-03-28T04:24:02.894Z,-1.03
2023-03-28T04:26:35.897Z,-1.05
2023-03-28T04:29:06.183Z,-1.23
2023-03-28T04:31:39.742Z,-1.17
2023-03-28T04:34:11.121Z,-1.23
2023-03-28T04:36:41.571Z,-1.32
2023-03-28T04:39:11.708Z,-1.39
2023-03-28T04:41:46.206Z,-1.33
2023-03-28T04:44:16.608Z,-1.27
2023-03-28T04:46:46.712Z,-1.23
2023-03-28T04:49:17.784Z,-1.29
2023-03-28T04:51:48.952Z,-1.20
2023-03-28T04:54:20.153Z,-1.20
2023-03-28T04:56:50.401Z,-1.26
2023-03-28T04:59:21.636Z,-1.24
2023-03-28T05:01:52.100Z,-1.28
2023-03-28T05:04:23.802Z,-1.16
2023-03-28T05:06:54.174Z,-1.24
2023-03-28T05:09:24.489Z,-1.02
2023-03-28T05:11:52.748Z,-1.09
2023-03-28T05:14:21.567Z,-1.11
2023-03-28T05:16:49.763Z,-1.24
2023-03-28T05:19:18.357Z,-1.23
2023-03-28T05:21:46.876Z,-1.04
2023-03-28T05:24:14.881Z,-1.18
2023-03-28T05:26:43.487Z,-1.31
2023-03-28T05:29:11.691Z,-1.09
2023-03-28T05:31:40.148Z,-1.05
2023-03-28T05:34:08.663Z,-0.88
2023-03-28T05:36:37.000Z,-0.98
2023-03-28T05:39:05.549Z,-0.99
2023-03-28T05:41:33.898Z,-1.11
2023-03-28T05:44:04.388Z,-1.12
2023-03-28T05:46:33.709Z,-1.03
2023-03-28T05:49:02.232Z,-0.82
2023-03-28T05:51:30.592Z,-0.60
2023-03-28T05:53:59.093Z,-0.29
2023-03-28T05:56:27.667Z,-0.20
2023-03-28T05:58:56.052Z,-0.24
2023-03-28T06:01:29.243Z,-0.21
2023-03-28T06:03:59.990Z,-0.11
2023-03-28T06:06:31.038Z,-0.11
2023-03-28T06:09:01.817Z,-0.32
2023-03-28T06:11:32.157Z,-0.44
2023-03-28T06:14:02.374Z,-0.39
2023-03-28T06:16:32.669Z,-0.38
2023-03-28T06:19:16.473Z,-0.43
2023-03-28T06:21:47.698Z,-0.30
2023-03-28T06:24:17.821Z,-0.21
2023-03-28T06:26:48.306Z,-0.06
2023-03-28T06:29:19.760Z,0.18
2023-03-28T06:31:50.103Z,0.31
2023-03-28T06:34:21.294Z,0.35
2023-03-28T06:36:51.451Z,0.45
2023-03-28T06:39:21.965Z,0.65
2023-03-28T06:41:52.214Z,0.50
2023-03-28T06:44:22.357Z,0.73
2023-03-28T06:46:52.621Z,0.81
2023-03-28T06:49:23.449Z,0.86
2023-03-28T06:51:53.599Z,1.00
2023-03-28T06:54:23.810Z,1.10
2023-03-28T06:56:54.040Z,1.17
2023-03-28T06:59:24.595Z,1.45
2023-03-28T07:01:52.979Z,1.72
2023-03-28T07:04:21.568Z,1.69
2023-03-28T07:06:50.124Z,1.76
2023-03-28T07:09:18.643Z,1.91
2023-03-28T07:11:46.990Z,2.15
2023-03-28T07:14:15.546Z,2.36
2023-03-28T07:16:43.857Z,2.36
2023-03-28T07:19:12.251Z,2.26
2023-03-28T07:21:40.849Z,2.50
2023-03-28T07:24:09.134Z,2.78
2023-03-28T07:26:37.448Z,2.84
2023-03-28T07:29:06.247Z,2.68
2023-03-28T07:31:34.861Z,2.86
2023-03-28T07:34:03.666Z,2.75
2023-03-28T07:36:31.517Z,2.93
2023-03-28T07:39:00.274Z,3.20
2023-03-28T07:41:29.318Z,3.24
2023-03-28T07:43:57.850Z,3.41
2023-03-28T07:46:26.508Z,3.44
2023-03-28T07:48:56.418Z,3.46
2023-03-28T07:51:26.512Z,3.58
2023-03-28T07:53:53.763Z,3.69
2023-03-28T07:56:23.825Z,3.78
2023-03-28T07:58:55.167Z,3.88
2023-03-28T08:01:23.103Z,3.95
2023-03-28T08:03:52.135Z,3.88
2023-03-28T08:06:32.112Z,3.79
2023-03-28T08:09:02.231Z,4.19
2023-03-28T08:11:32.738Z,4.28
2023-03-28T08:14:05.556Z,4.07
2023-03-28T08:16:34.419Z,4.17
2023-03-28T08:19:11.373Z,4.12
2023-03-28T08:21:42.239Z,4.59
2023-03-28T08:24:17.377Z,4.75
2023-03-28T08:26:52.654Z,5.05
2023-03-28T08:29:23.360Z,5.12
2023-03-28T08:31:53.515Z,5.58
2023-03-28T08:34:24.713Z,5.50
2023-03-28T08:36:57.764Z,5.24
2023-03-28T08:39:27.616Z,5.19
2023-03-28T08:42:44.535Z,5.40
2023-03-28T08:45:39.521Z,5.33
2023-03-28T08:48:32.142Z,4.93
2023-03-28T08:51:27.561Z,5.05
2023-03-28T08:54:28.591Z,4.81
2023-03-28T08:57:06.507Z,4.53
2023-03-28T09:00:14.339Z,5.12
2023-03-28T09:02:45.100Z,5.36
2023-03-28T09:05:45.287Z,5.42
2023-03-28T09:08:42.399Z,5.10
2023-03-28T09:11:58.360Z,5.36
2023-03-28T09:15:16.364Z,5.71
2023-03-28T09:18:11.803Z,5.01
2023-03-28T09:21:45.904Z,5.64
2023-03-28T09:25:05.209Z,6.40
2023-03-28T09:28:07.176Z,6.50
2023-03-28T09:30:49.098Z,5.81
2023-03-28T09:33:43.380Z,6.15
2023-03-28T09:36:27.517Z,5.34
2023-03-28T09:39:28.602Z,5.40
2023-03-28T09:42:44.046Z,5.53
2023-03-28T09:45:39.836Z,5.89
2023-03-28T09:48:27.429Z,5.88
2023-03-28T09:51:05.174Z,6.23
2023-03-28T09:53:38.496Z,5.99
2023-03-28T09:56:27.796Z,5.34
2023-03-28T09:59:05.241Z,4.78
2023-03-28T10:01:52.375Z,4.36
2023-03-28T10:04:28.635Z,5.61
2023-03-28T10:07:10.804Z,5.92
2023-03-28T10:09:58.885Z,6.16
2023-03-28T10:12:39.179Z,5.25
2023-03-28T10:15:50.343Z,4.84
2023-03-28T10:18:28.674Z,4.66
2023-03-28T10:21:34.892Z,4.77
2023-03-28T10:24:12.811Z,4.94
2023-03-28T10:26:43.681Z,5.61
2023-03-28T10:29:16.280Z,5.28
2023-03-28T10:31:51.164Z,5.02
2023-03-28T10:34:33.780Z,4.77
2023-03-28T10:37:04.025Z,5.58
2023-03-28T10:39:34.141Z,6.42
2023-03-28T10:42:04.722Z,6.26
2023-03-28T10:44:36.803Z,6.12
2023-03-28T10:47:19.622Z,6.86
2023-03-28T10:49:56.751Z,6.74
2023-03-28T10:53:04.210Z,7.26
2023-03-28T10:56:00.199Z,6.43
2023-03-28T10:58:44.278Z,5.36
2023-03-28T11:01:25.075Z,5.33
2023-03-28T11:04:44.836Z,5.30
2023-03-28T11:07:55.957Z,5.27
2023-03-28T11:11:17.692Z,5.88
2023-03-28T11:14:22.632Z,6.63
2023-03-28T11:17:13.060Z,6.31
2023-03-28T11:20:17.878Z,6.00
2023-03-28T11:23:15.163Z,6.18
2023-03-28T11:26:12.495Z,6.32
2023-03-28T11:28:57.136Z,6.75
2023-03-28T11:31:36.298Z,5.82
2023-03-28T11:34:30.957Z,5.35
2023-03-28T11:37:36.373Z,5.57
2023-03-28T11:41:08.051Z,5.40
2023-03-28T11:44:04.682Z,5.60
2023-03-28T11:47:47.571Z,6.24
2023-03-28T11:51:08.871Z,6.72
2023-03-28T11:54:25.935Z,7.31
2023-03-28T11:57:12.893Z,6.85
2023-03-28T12:00:23.075Z,6.87
2023-03-28T12:03:30.470Z,7.70
2023-03-28T12:06:11.548Z,8.00
2023-03-28T12:09:11.362Z,8.38
2023-03-28T12:12:04.748Z,8.13
2023-03-28T12:15:05.480Z,7.75
2023-03-28T12:17:52.491Z,7.29
2023-03-28T12:20:59.999Z,7.37
2023-03-28T12:23:56.019Z,6.63
2023-03-28T12:27:14.767Z,6.64
2023-03-28T12:30:05.699Z,6.66
2023-03-28T12:33:06.229Z,7.05
2023-03-28T12:36:12.983Z,7.76
2023-03-28T12:39:35.032Z,7.75
2023-03-28T12:42:15.702Z,7.89
2023-03-28T12:45:00.386Z,7.72
2023-03-28T12:47:43.988Z,7.52
2023-03-28T12:50:56.429Z,7.19
2023-03-28T12:53:27.792Z,7.51
2023-03-28T12:55:58.240Z,7.76
2023-03-28T12:58:37.680Z,7.91
2023-03-28T13:01:07.778Z,8.11
2023-03-28T13:04:18.541Z,8.05
2023-03-28T13:07:26.930Z,7.14
2023-03-28T13:10:20.144Z,7.30
2023-03-28T13:13:34.361Z,7.80
2023-03-28T13:16:35.498Z,8.34
2023-03-28T13:19:17.164Z,8.21
2023-03-28T13:22:00.246Z,7.77
2023-03-28T13:24:37.322Z,7.99
2023-03-28T13:27:29.484Z,7.91
2023-03-28T13:30:15.568Z,7.59
2023-03-28T13:33:10.115Z,8.07
2023-03-28T13:36:09.503Z,8.06
2023-03-28T13:39:24.404Z,7.85
2023-03-28T13:41:59.189Z,8.16
2023-03-28T13:44:41.942Z,8.16
2023-03-28T13:47:33.886Z,8.60
2023-03-28T13:50:34.273Z,8.66
2023-03-28T13:53:04.879Z,9.01
2023-03-28T13:55:35.168Z,8.84
2023-03-28T13:58:05.503Z,8.85
2023-03-28T14:00:36.333Z,9.42
2023-03-28T14:03:15.603Z,9.08
2023-03-28T14:05:46.828Z,8.73
2023-03-28T14:08:16.813Z,9.27
2023-03-28T14:10:48.793Z,9.24
2023-03-28T14:13:30.249Z,9.79
2023-03-28T14:16:00.821Z,9.62
2023-03-28T14:18:47.895Z,9.42
2023-03-28T14:21:18.779Z,9.11
2023-03-28T14:24:06.571Z,9.15
2023-03-28T14:26:37.751Z,9.01
2023-03-28T14:29:18.013Z,8.79
2023-03-28T14:31:48.739Z,8.82
2023-03-28T14:34:38.959Z,9.05
2023-03-28T14:37:18.813Z,9.12
2023-03-28T14:39:46.828Z,9.16
2023-03-28T14:42:22.674Z,9.24
2023-03-28T14:44:55.188Z,9.72
2023-03-28T14:47:33.496Z,9.98
2023-03-28T14:50:05.475Z,10.63
2023-03-28T14:52:40.978Z,11.18
2023-03-28T14:55:26.367Z,11.05
2023-03-28T14:57:59.092Z,11.51
2023-03-28T15:00:43.012Z,10.59
2023-03-28T15:03:20.349Z,10.32
2023-03-28T15:05:55.041Z,9.30
2023-03-28T15:08:34.769Z,9.60
2023-03-28T15:11:20.867Z,10.84
2023-03-28T15:14:13.605Z,11.42
2023-03-28T15:16:47.890Z,11.94
2023-03-28T15:19:28.991Z,12.20
2023-03-28T15:22:13.672Z,11.85
2023-03-28T15:24:45.644Z,11.46
2023-03-28T15:27:36.155Z,12.24
2023-03-28T15:30:19.391Z,12.05
2023-03-28T15:32:49.290Z,11.70
2023-03-28T15:35:40.604Z,11.80
2023-03-28T15:38:25.871Z,11.92
2023-03-28T15:41:23.647Z,11.98
2023-03-28T15:44:30.397Z,10.56
2023-03-28T15:52:10.749Z,7.95
2023-03-28T15:54:52.317Z,7.32
2023-03-28T15:57:29.635Z,6.81
2023-03-28T16:00:01.242Z,6.48
2023-03-28T16:02:34.095Z,6.32
2023-03-28T16:05:15.116Z,6.11
2023-03-28T16:07:46.046Z,6.23
2023-03-28T16:10:25.759Z,6.22
2023-03-28T16:12:54.009Z,6.11
2023-03-28T16:15:24.027Z,6.34
2023-03-28T16:17:55.853Z,6.34
2023-03-28T16:20:27.327Z,6.39
2023-03-28T16:22:57.448Z,6.35
2023-03-28T16:25:28.620Z,6.29
2023-03-28T16:27:58.141Z,6.35
2023-03-28T16:30:42.560Z,6.28
2023-03-28T16:33:12.260Z,6.25
2023-03-28T16:35:41.965Z,6.35
2023-03-28T16:38:12.593Z,6.05
2023-03-28T16:40:42.683Z,5.94
2023-03-28T16:43:15.443Z,5.82
2023-03-28T16:45:50.660Z,5.78
2023-03-28T16:48:20.459Z,5.72
2023-03-28T16:50:59.395Z,5.66
2023-03-28T16:53:29.122Z,5.68
2023-03-28T16:55:59.885Z,5.57
2023-03-28T16:58:30.418Z,5.43
2023-03-28T17:01:15.699Z,5.27
2023-03-28T17:03:43.589Z,5.18
2023-03-28T17:06:13.453Z,5.11
2023-03-28T17:08:44.523Z,4.96
2023-03-28T17:11:13.871Z,4.90
2023-03-28T17:13:44.131Z,4.95
2023-03-28T17:16:14.112Z,4.78
2023-03-28T17:18:44.516Z,4.65
2023-03-28T17:21:18.504Z,4.48
2023-03-28T17:23:49.582Z,4.31
2023-03-28T17:26:18.563Z,4.20
2023-03-28T17:28:48.104Z,4.10
2023-03-28T17:31:20.964Z,3.93
2023-03-28T17:33:49.894Z,3.79
2023-03-28T17:36:29.922Z,3.66
2023-03-28T17:39:02.149Z,3.60
2023-03-28T17:41:32.479Z,3.43
2023-03-28T17:44:03.115Z,3.30
2023-03-28T17:46:33.613Z,3.23
2023-03-28T17:49:03.954Z,3.13
2023-03-28T17:51:34.640Z,2.99
2023-03-28T17:54:11.915Z,2.89
2023-03-28T17:56:42.333Z,2.77
2023-03-28T17:59:12.589Z,2.70
2023-03-28T18:01:42.734Z,2.61
2023-03-28T18:04:12.986Z,2.53
2023-03-28T18:06:41.529Z,2.43
2023-03-28T18:09:09.848Z,2.39
2023-03-28T18:11:39.578Z,2.36
2023-03-28T18:14:09.595Z,2.29
2023-03-28T18:16:40.202Z,2.19
2023-03-28T18:19:17.838Z,2.13
2023-03-28T18:21:49.481Z,2.04
2023-03-28T18:24:20.641Z,2.01
2023-03-28T18:26:50.828Z,1.93
2023-03-28T18:29:21.243Z,1.86
2023-03-28T18:31:51.665Z,1.78
2023-03-28T18:34:22.101Z,1.69
2023-03-28T18:36:53.501Z,1.60
2023-03-28T18:39:23.892Z,1.53
2023-03-28T18:41:54.016Z,1.47
2023-03-28T18:44:24.116Z,1.40
2023-03-28T18:46:55.506Z,1.32
2023-03-28T18:49:25.680Z,1.26
2023-03-28T18:51:55.897Z,1.22
2023-03-28T18:54:26.122Z,1.20
2023-03-28T18:56:56.341Z,1.21
2023-03-28T18:59:27.816Z,1.19
2023-03-28T19:01:59.658Z,1.17
2023-03-28T19:04:30.116Z,1.18
2023-03-28T19:07:00.390Z,1.18
2023-03-28T19:09:30.668Z,1.18
2023-03-28T19:12:01.439Z,1.17
2023-03-28T19:14:31.590Z,1.14
2023-03-28T19:17:01.913Z,1.11
2023-03-28T19:19:37.457Z,1.09
2023-03-28T19:22:07.788Z,1.08
2023-03-28T19:24:37.931Z,1.06
2023-03-28T19:27:08.033Z,1.04
2023-03-28T19:29:36.525Z,1.04
2023-03-28T19:32:05.004Z,1.02
2023-03-28T19:34:33.368Z,1.00
2023-03-28T19:37:02.044Z,0.96
2023-03-28T19:39:30.231Z,0.93
2023-03-28T19:41:58.767Z,0.92
2023-03-28T19:44:27.449Z,0.87
2023-03-28T19:46:55.788Z,0.85
2023-03-28T19:49:24.007Z,0.84
2023-03-28T19:51:55.583Z,0.82
2023-03-28T19:54:25.889Z,0.77
2023-03-28T19:56:56.138Z,0.73
2023-03-28T19:59:26.355Z,0.67
2023-03-28T20:01:56.560Z,0.60
2023-03-28T20:04:28.370Z,0.54
2023-03-28T20:06:58.498Z,0.48
2023-03-28T20:09:28.881Z,0.43
2023-03-28T20:11:59.103Z,0.40
2023-03-28T20:14:29.361Z,0.37
2023-03-28T20:16:59.563Z,0.32
2023-03-28T20:19:29.808Z,0.26
2023-03-28T20:22:00.094Z,0.20
2023-03-28T20:24:30.625Z,0.15
2023-03-28T20:27:01.778Z,0.10
2023-03-28T20:29:33.077Z,0.06
2023-03-28T20:32:05.087Z,0.02
2023-03-28T20:34:36.050Z,-0.05
2023-03-28T20:37:06.335Z,-0.10
2023-03-28T20:39:37.207Z,-0.13
2023-03-28T20:42:10.406Z,-0.18
2023-03-28T20:44:40.926Z,-0.23
2023-03-28T20:47:12.668Z,-0.28
2023-03-28T20:49:46.330Z,-0.32
2023-03-28T20:52:16.866Z,-0.37
2023-03-28T20:54:47.150Z,-0.40
2023-03-28T20:57:15.449Z,-0.44
2023-03-28T20:59:43.940Z,-0.47
2023-03-28T21:02:12.691Z,-0.49
2023-03-28T21:04:41.898Z,-0.53
2023-03-28T21:07:12.935Z,-0.54
2023-03-28T21:09:42.003Z,-0.55
2023-03-28T21:12:16.672Z,-0.55
2023-03-28T21:14:47.094Z,-0.55
2023-03-28T21:17:25.482Z,-0.55
2023-03-28T21:19:55.994Z,-0.54
2023-03-28T21:22:26.810Z,-0.56
2023-03-28T21:24:58.037Z,-0.55
2023-03-28T21:27:28.309Z,-0.54
2023-03-28T21:29:58.849Z,-0.52
2023-03-28T21:32:29.153Z,-0.52
2023-03-28T21:35:01.106Z,-0.53
2023-03-28T21:37:32.044Z,-0.51
2023-03-28T21:40:02.140Z,-0.51
2023-03-28T21:42:35.144Z,-0.49
2023-03-28T21:45:06.347Z,-0.48
2023-03-28T21:47:38.343Z,-0.47
2023-03-28T21:50:11.955Z,-0.45
2023-03-28T21:52:43.898Z,-0.50
2023-03-28T21:55:14.090Z,-0.53
2023-03-28T21:57:44.210Z,-0.55
2023-03-28T22:00:15.498Z,-0.58
2023-03-28T22:02:45.749Z,-0.64
2023-03-28T22:05:28.686Z,-0.68
2023-03-28T22:07:59.712Z,-0.72
2023-03-28T22:10:29.887Z,-0.75
2023-03-28T22:13:00.188Z,-0.79
2023-03-28T22:15:31.880Z,-0.84
2023-03-28T22:18:04.559Z,-0.87
2023-03-28T22:20:38.862Z,-0.91
2023-03-28T22:23:10.093Z,-0.94
2023-03-28T22:25:40.713Z,-0.97
2023-03-28T22:28:11.756Z,-0.99
2023-03-28T22:30:42.600Z,-1.03
2023-03-28T22:33:13.638Z,-1.04
2023-03-28T22:35:43.815Z,-1.10
2023-03-28T22:38:15.094Z,-1.13
2023-03-28T22:40:45.862Z,-1.17
2023-03-28T22:43:17.258Z,-1.21
2023-03-28T22:45:47.789Z,-1.25
2023-03-28T22:48:20.486Z,-1.28
2023-03-28T22:50:50.759Z,-1.30
2023-03-28T22:53:23.862Z,-1.34
2023-03-28T22:55:55.687Z,-1.36
2023-03-28T22:58:25.470Z,-1.38
2023-03-28T23:00:55.094Z,-1.44
2023-03-28T23:03:25.234Z,-1.45
2023-03-28T23:05:55.444Z,-1.47
2023-03-28T23:08:26.249Z,-1.50
2023-03-28T23:10:56.427Z,-1.53
2023-03-28T23:13:26.568Z,-1.58
2023-03-28T23:15:56.715Z,-1.62
2023-03-28T23:18:26.906Z,-1.66
2023-03-28T23:20:57.571Z,-1.66
2023-03-28T23:23:28.032Z,-1.67
2023-03-28T23:25:59.762Z,-1.68
2023-03-28T23:28:29.913Z,-1.70
2023-03-28T23:31:00.393Z,-1.74
2023-03-28T23:33:30.863Z,-1.76
2023-03-28T23:36:01.636Z,-1.78
2023-03-28T23:38:32.894Z,-1.77
2023-03-28T23:41:03.279Z,-1.78
2023-03-28T23:43:34.263Z,-1.75
2023-03-28T23:46:04.959Z,-1.75
2023-03-28T23:48:36.337Z,-1.72
2023-03-28T23:51:07.124Z,-1.68
2023-03-28T23:53:37.239Z,-1.62
2023-03-28T23:56:08.376Z,-1.56
2023-03-28T23:58:38.599Z,-1.50
